Time;durP1;ratioP1;P1;durP2;ratioP2;P2;SDS_P1;SDS_P2;PMS_P1;PMS_P2;Temp;Humidity;BMP_temperature;BMP_pressure;BME280_temperature;BME280_humidity;BME280_pressure;Samples;Min_cycle;Max_cycle;Signal;HPM_P1;HPM_P2
2023/07/02 00:02:42;;;;;;;2.80;2.80;;;17.70;77.60;;;;;;6255744;28;20254;-80
2023/07/02 00:05:45;;;;;;;2.93;2.73;;;17.60;77.50;;;;;;6262686;28;20725;-80
2023/07/02 00:08:50;;;;;;;3.00;2.80;;;17.60;77.40;;;;;;6256629;28;20238;-79
2023/07/02 00:11:53;;;;;;;2.80;2.70;;;17.60;77.50;;;;;;6254855;28;20238;-78
2023/07/02 00:14:56;;;;;;;2.60;2.60;;;17.60;77.50;;;;;;6263748;28;20636;-79
2023/07/02 00:17:59;;;;;;;2.90;2.80;;;17.60;77.70;;;;;;6259693;28;20312;-79
2023/07/02 00:21:03;;;;;;;2.87;2.87;;;17.50;78.00;;;;;;6256275;28;20840;-79
2023/07/02 00:24:09;;;;;;;3.00;3.00;;;17.50;78.30;;;;;;6257796;28;20239;-80
2023/07/02 00:27:12;;;;;;;2.80;2.80;;;17.50;78.30;;;;;;6254977;28;20320;-80
2023/07/02 00:30:16;;;;;;;3.97;3.13;;;17.50;78.60;;;;;;6263247;28;20237;-80
2023/07/02 00:33:19;;;;;;;3.87;3.10;;;17.50;78.70;;;;;;6261635;28;20792;-78
2023/07/02 00:36:22;;;;;;;3.20;3.00;;;17.50;78.70;;;;;;6262996;28;20311;-80
2023/07/02 00:39:26;;;;;;;2.90;2.90;;;17.40;78.70;;;;;;6258525;28;20334;-80
2023/07/02 00:42:30;;;;;;;3.37;3.27;;;17.50;78.70;;;;;;6262044;28;20245;-79
2023/07/02 00:45:33;;;;;;;3.20;3.10;;;17.50;78.70;;;;;;6262126;28;20245;-80
2023/07/02 00:48:37;;;;;;;3.60;3.40;;;17.40;78.90;;;;;;6261061;28;20321;-78
2023/07/02 00:51:41;;;;;;;3.57;3.37;;;17.40;78.80;;;;;;6254629;28;20288;-78
2023/07/02 00:54:46;;;;;;;3.60;3.50;;;17.40;78.90;;;;;;6261194;28;20248;-80
2023/07/02 00:57:49;;;;;;;4.27;4.13;;;17.40;78.90;;;;;;6262186;28;20249;-75
2023/07/02 01:00:53;;;;;;;4.27;4.13;;;17.40;78.80;;;;;;6247731;28;20242;-79
2023/07/02 01:03:59;;;;;;;4.03;3.93;;;17.30;78.90;;;;;;6251060;28;20268;-78
2023/07/02 01:07:04;;;;;;;4.20;4.10;;;17.30;78.80;;;;;;6251314;28;20237;-79
2023/07/02 01:10:12;;;;;;;4.33;4.13;;;17.20;78.80;;;;;;6227725;28;20234;-78
2023/07/02 01:13:21;;;;;;;4.47;4.37;;;17.20;78.70;;;;;;6231688;28;20242;-79
2023/07/02 01:16:24;;;;;;;4.53;4.43;;;17.30;78.50;;;;;;6229759;28;20304;-79
2023/07/02 01:19:42;;;;;;;4.53;4.43;;;17.40;78.10;;;;;;6226321;28;20262;-79
2023/07/02 01:22:46;;;;;;;5.00;4.80;;;17.40;78.00;;;;;;6236740;28;20774;-80
2023/07/02 01:25:53;;;;;;;5.07;4.87;;;17.30;77.90;;;;;;6225027;28;20261;-79
2023/07/02 01:28:56;;;;;;;5.60;5.30;;;17.30;77.90;;;;;;6213250;28;20887;-75
2023/07/02 01:31:59;;;;;;;4.93;4.73;;;17.20;77.80;;;;;;6227552;28;20241;-79
2023/07/02 01:35:04;;;;;;;5.50;5.30;;;17.20;77.50;;;;;;6229230;28;20264;-81
2023/07/02 01:38:07;;;;;;;5.80;5.30;;;17.20;77.60;;;;;;6237480;28;20269;-80
2023/07/02 01:41:11;;;;;;;5.30;4.90;;;17.20;77.40;;;;;;6227047;28;20343;-79
2023/07/02 01:44:14;;;;;;;5.50;5.30;;;17.20;77.40;;;;;;6219922;28;20235;-79
2023/07/02 01:47:19;;;;;;;6.03;5.73;;;17.20;77.30;;;;;;6235845;28;20642;-79
2023/07/02 01:50:24;;;;;;;5.90;5.40;;;17.20;77.50;;;;;;6227441;28;20250;-80
2023/07/02 01:53:27;;;;;;;5.93;5.67;;;17.20;77.60;;;;;;6236537;28;20239;-78
2023/07/02 01:56:30;;;;;;;6.13;5.73;;;17.20;77.50;;;;;;6237117;28;20243;-79
2023/07/02 01:59:33;;;;;;;6.87;6.37;;;17.20;77.40;;;;;;6232646;28;20239;-78
2023/07/02 02:02:39;;;;;;;6.17;5.90;;;17.20;77.10;;;;;;6238217;28;20242;-80
2023/07/02 02:05:43;;;;;;;7.43;6.90;;;17.20;77.00;;;;;;6230054;28;20235;-79
2023/07/02 02:08:47;;;;;;;7.30;6.87;;;17.10;77.00;;;;;;6227027;28;20322;-81
2023/07/02 02:11:52;;;;;;;8.13;7.73;;;17.20;77.00;;;;;;6230003;28;20239;-79
2023/07/02 02:14:55;;;;;;;7.50;6.63;;;17.00;76.80;;;;;;6239004;28;20234;-77
2023/07/02 02:18:00;;;;;;;7.87;7.30;;;17.00;76.70;;;;;;6224323;28;20241;-81
2023/07/02 02:21:05;;;;;;;7.97;7.37;;;17.00;76.60;;;;;;6229313;28;20321;-79
2023/07/02 02:24:10;;;;;;;7.67;7.27;;;17.00;76.50;;;;;;6233689;28;20316;-78
2023/07/02 02:27:13;;;;;;;7.10;6.60;;;17.00;76.60;;;;;;6236522;28;20239;-79
2023/07/02 02:30:17;;;;;;;7.13;6.73;;;16.90;76.70;;;;;;6232911;28;20241;-79
2023/07/02 02:33:20;;;;;;;6.60;6.20;;;16.90;76.80;;;;;;6232785;28;20365;-78
2023/07/02 02:36:24;;;;;;;7.07;6.47;;;17.00;76.60;;;;;;6229853;28;20242;-79
2023/07/02 02:39:27;;;;;;;6.67;6.20;;;16.90;76.70;;;;;;6227252;28;20368;-81
2023/07/02 02:42:34;;;;;;;6.43;6.03;;;16.90;76.70;;;;;;6237477;28;20723;-80
2023/07/02 02:45:37;;;;;;;6.47;5.97;;;16.90;76.80;;;;;;6228073;28;20238;-80
2023/07/02 02:48:40;;;;;;;6.23;5.87;;;16.80;76.80;;;;;;6235266;28;20235;-80
2023/07/02 02:51:45;;;;;;;6.10;5.70;;;16.80;76.30;;;;;;6236214;28;20384;-79
2023/07/02 02:54:49;;;;;;;6.27;5.87;;;16.80;76.40;;;;;;6224929;28;20243;-79
2023/07/02 02:57:52;;;;;;;5.90;5.70;;;16.80;76.50;;;;;;6238597;28;20725;-77
2023/07/02 03:00:55;;;;;;;6.20;5.77;;;16.80;76.60;;;;;;6228471;28;20330;-79
2023/07/02 03:03:59;;;;;;;6.43;5.93;;;16.80;76.50;;;;;;6215234;28;20284;-78
2023/07/02 03:07:07;;;;;;;6.20;5.73;;;16.80;76.50;;;;;;6230098;28;20231;-80
2023/07/02 03:10:10;;;;;;;6.70;6.20;;;16.80;76.70;;;;;;6239105;28;20245;-78
2023/07/02 03:13:14;;;;;;;5.87;5.67;;;16.90;76.60;;;;;;6233850;28;20726;-79
2023/07/02 03:16:21;;;;;;;6.20;5.90;;;16.80;76.70;;;;;;6237598;28;20620;-79
2023/07/02 03:19:24;;;;;;;6.63;6.27;;;16.80;76.70;;;;;;6230096;28;20278;-80
2023/07/02 03:22:29;;;;;;;6.20;5.90;;;16.70;76.60;;;;;;6226770;28;20250;-79
2023/07/02 03:25:33;;;;;;;6.27;5.77;;;16.70;76.60;;;;;;6234131;28;20230;-78
2023/07/02 03:28:36;;;;;;;5.70;5.50;;;16.70;76.70;;;;;;6225491;28;20304;-79
2023/07/02 03:31:40;;;;;;;8.47;5.47;;;16.60;76.50;;;;;;6227075;28;20434;-78
2023/07/02 03:34:43;;;;;;;5.93;5.70;;;16.60;76.50;;;;;;6222362;28;20261;-79
2023/07/02 03:37:47;;;;;;;6.10;5.53;;;16.60;76.40;;;;;;6232440;28;20238;-78
2023/07/02 03:40:51;;;;;;;6.10;5.70;;;16.70;76.10;;;;;;6220173;28;20242;-78
2023/07/02 03:43:54;;;;;;;5.40;5.07;;;16.70;75.70;;;;;;6217708;28;20651;-78
2023/07/02 03:46:57;;;;;;;5.90;5.50;;;16.70;75.80;;;;;;6222503;28;20309;-78
2023/07/02 03:50:00;;;;;;;5.50;5.23;;;16.70;75.80;;;;;;6236195;28;20288;-79
2023/07/02 03:53:04;;;;;;;5.13;4.93;;;16.70;75.70;;;;;;6228937;28;20306;-77
2023/07/02 03:56:08;;;;;;;5.40;5.10;;;16.70;75.00;;;;;;6224717;28;20313;-78
2023/07/02 03:59:11;;;;;;;5.47;5.07;;;16.70;74.80;;;;;;6228360;28;20859;-79
2023/07/02 04:02:14;;;;;;;4.60;4.40;;;16.70;74.70;;;;;;6216646;28;20239;-79
2023/07/02 04:05:17;;;;;;;5.17;4.87;;;16.80;74.70;;;;;;6232766;28;20262;-78
2023/07/02 04:08:24;;;;;;;4.73;4.53;;;16.70;74.20;;;;;;6227959;28;20368;-80
2023/07/02 04:11:27;;;;;;;4.80;4.60;;;16.70;74.20;;;;;;6236108;28;20234;-79
2023/07/02 04:14:30;;;;;;;5.03;4.53;;;16.60;74.20;;;;;;6219799;28;20235;-78
2023/07/02 04:17:34;;;;;;;4.87;4.40;;;16.70;74.00;;;;;;6233829;28;20719;-80
2023/07/02 04:20:38;;;;;;;5.27;4.80;;;16.60;73.80;;;;;;6233319;28;20641;-77
2023/07/02 04:23:42;;;;;;;4.90;4.70;;;16.70;73.60;;;;;;6233551;28;20239;-80
2023/07/02 04:26:46;;;;;;;5.20;4.70;;;16.70;73.60;;;;;;6227982;28;20313;-79
2023/07/02 04:30:10;;;;;;;4.77;4.37;;;16.80;73.40;;;;;;6229418;28;20235;-78
2023/07/02 04:33:15;;;;;;;4.53;4.33;;;16.80;73.30;;;;;;6230223;28;20266;-78
2023/07/02 04:36:18;;;;;;;4.73;4.37;;;16.70;73.40;;;;;;6230766;28;20232;-80
2023/07/02 04:39:24;;;;;;;4.97;4.67;;;16.80;73.20;;;;;;6229365;28;20320;-79
2023/07/02 04:42:28;;;;;;;4.50;4.20;;;16.80;72.90;;;;;;6214367;28;20621;-79
2023/07/02 04:45:36;;;;;;;4.53;4.43;;;16.90;72.90;;;;;;6223672;28;20374;-76
2023/07/02 04:48:39;;;;;;;4.57;4.17;;;16.90;72.50;;;;;;6232627;28;20238;-79
2023/07/02 04:51:43;;;;;;;4.40;4.07;;;17.00;72.60;;;;;;6224056;28;20235;-79
2023/07/02 04:54:47;;;;;;;4.47;4.00;;;17.10;72.30;;;;;;6226325;28;20588;-79
2023/07/02 04:57:50;;;;;;;4.50;4.20;;;17.00;72.20;;;;;;6229119;28;20318;-80
2023/07/02 05:00:54;;;;;;;5.00;4.60;;;17.00;71.90;;;;;;6223894;28;20371;-79
2023/07/02 05:03:57;;;;;;;4.33;4.13;;;17.00;72.00;;;;;;6237033;28;20233;-79
2023/07/02 05:07:01;;;;;;;4.33;4.13;;;17.10;71.90;;;;;;6214216;28;20227;-77
2023/07/02 05:10:06;;;;;;;4.40;4.10;;;17.20;71.40;;;;;;6225426;28;20239;-78
2023/07/02 05:13:09;;;;;;;4.50;4.17;;;17.30;71.10;;;;;;6227722;28;20799;-77
2023/07/02 05:16:13;;;;;;;4.80;4.40;;;17.40;70.50;;;;;;6225661;28;20292;-77
2023/07/02 05:19:16;;;;;;;4.60;4.30;;;17.50;70.10;;;;;;6223529;28;20241;-80
2023/07/02 05:22:19;;;;;;;4.03;3.83;;;17.40;70.60;;;;;;6232875;28;20423;-80
2023/07/02 05:25:24;;;;;;;4.47;4.10;;;17.50;70.30;;;;;;6222226;28;20239;-82
2023/07/02 05:28:27;;;;;;;4.13;3.90;;;17.50;70.10;;;;;;6228089;28;20243;-82
2023/07/02 05:31:31;;;;;;;4.30;4.00;;;17.60;70.20;;;;;;6228410;28;20711;-80
2023/07/02 05:34:34;;;;;;;4.20;3.83;;;17.70;70.30;;;;;;6233511;28;20219;-80
2023/07/02 05:37:37;;;;;;;4.30;4.00;;;17.90;69.30;;;;;;6234145;28;20242;-80
2023/07/02 05:40:42;;;;;;;7.67;4.20;;;18.10;69.00;;;;;;6226590;28;20635;-79
2023/07/02 05:43:45;;;;;;;4.10;3.80;;;18.10;67.70;;;;;;6233370;28;20944;-78
2023/07/02 05:46:48;;;;;;;5.03;4.43;;;18.30;67.30;;;;;;6230773;28;20239;-81
2023/07/02 05:49:51;;;;;;;4.17;3.97;;;18.40;67.00;;;;;;6227463;28;20238;-80
2023/07/02 05:52:54;;;;;;;4.40;4.10;;;18.40;66.70;;;;;;6225309;28;20240;-80
2023/07/02 05:55:59;;;;;;;3.90;3.63;;;18.10;66.90;;;;;;6228266;28;20242;-80
2023/07/02 05:59:02;;;;;;;4.33;3.90;;;18.00;67.10;;;;;;6233328;28;20325;-79
2023/07/02 06:02:05;;;;;;;3.93;3.63;;;18.00;67.00;;;;;;6239494;28;20266;-80
2023/07/02 06:05:09;;;;;;;4.20;3.90;;;18.20;67.10;;;;;;6233607;28;20264;-78
2023/07/02 06:08:12;;;;;;;5.53;4.00;;;18.60;66.20;;;;;;6229417;28;20226;-78
2023/07/02 06:11:16;;;;;;;3.93;3.60;;;19.00;64.70;;;;;;6232922;28;20325;-80
2023/07/02 06:14:21;;;;;;;3.47;3.30;;;19.30;64.00;;;;;;6230415;28;20239;-79
2023/07/02 06:17:25;;;;;;;3.93;3.57;;;19.50;63.40;;;;;;6239143;28;20242;-79
2023/07/02 06:20:28;;;;;;;4.07;3.70;;;19.70;62.30;;;;;;6238254;28;20330;-81
2023/07/02 06:23:41;;;;;;;3.53;3.40;;;19.70;62.70;;;;;;6229277;28;20235;-79
2023/07/02 06:26:45;;;;;;;3.80;3.47;;;19.80;62.20;;;;;;6232446;28;20853;-80
2023/07/02 06:29:49;;;;;;;3.53;3.33;;;19.80;62.10;;;;;;6229461;28;20313;-77
2023/07/02 06:32:53;;;;;;;4.27;4.03;;;19.30;62.50;;;;;;6237483;28;20322;-79
2023/07/02 06:35:56;;;;;;;6.13;3.90;;;19.20;61.90;;;;;;6228760;28;20242;-80
2023/07/02 06:38:59;;;;;;;4.27;4.07;;;19.10;62.00;;;;;;6224547;28;20285;-78
2023/07/02 06:42:04;;;;;;;4.10;3.80;;;18.90;62.10;;;;;;6232633;28;20314;-78
2023/07/02 06:45:08;;;;;;;3.83;3.53;;;18.90;62.80;;;;;;6238394;28;20235;-78
2023/07/02 06:48:11;;;;;;;4.10;3.80;;;19.10;62.70;;;;;;6230341;28;20231;-80
2023/07/02 06:51:15;;;;;;;4.20;3.90;;;19.40;62.30;;;;;;6230499;28;20235;-82
2023/07/02 06:54:18;;;;;;;4.83;3.53;;;19.70;62.00;;;;;;6230917;28;20246;-79
2023/07/02 06:57:23;;;;;;;3.83;3.50;;;20.00;61.00;;;;;;6232758;28;20369;-79
2023/07/02 07:00:26;;;;;;;5.37;3.60;;;20.30;60.80;;;;;;6233147;28;20246;-78
2023/07/02 07:03:29;;;;;;;3.93;3.60;;;20.70;59.20;;;;;;6226551;28;20266;-80
2023/07/02 07:06:32;;;;;;;4.83;3.60;;;20.30;60.20;;;;;;6240937;28;20325;-79
2023/07/02 07:09:35;;;;;;;3.47;3.37;;;20.30;60.80;;;;;;6193303;28;20262;-79
2023/07/02 07:12:39;;;;;;;3.77;3.47;;;20.20;60.10;;;;;;6226832;28;20722;-79
2023/07/02 07:15:43;;;;;;;4.10;3.90;;;20.00;60.40;;;;;;6231980;28;20259;-80
2023/07/02 07:18:46;;;;;;;3.80;3.50;;;20.00;60.70;;;;;;6236589;28;20234;-79
2023/07/02 07:21:49;;;;;;;3.53;3.40;;;19.80;61.00;;;;;;6239722;28;20239;-78
2023/07/02 07:24:52;;;;;;;3.90;3.70;;;19.50;60.50;;;;;;6237417;28;20231;-79
2023/07/02 07:27:56;;;;;;;3.80;3.60;;;19.30;60.60;;;;;;6239424;28;20240;-78
2023/07/02 07:31:00;;;;;;;3.73;3.53;;;19.40;61.50;;;;;;6237794;28;20254;-78
2023/07/02 07:34:03;;;;;;;4.13;3.90;;;19.50;60.30;;;;;;6232064;28;20268;-79
2023/07/02 07:37:07;;;;;;;4.20;3.97;;;19.80;60.40;;;;;;6228165;28;20234;-79
2023/07/02 07:40:11;;;;;;;4.43;4.10;;;20.00;59.10;;;;;;6230101;28;20239;-77
2023/07/02 07:43:15;;;;;;;4.20;3.90;;;20.00;59.30;;;;;;6232290;28;20294;-78
2023/07/02 07:46:19;;;;;;;4.27;4.00;;;20.00;58.10;;;;;;6226322;28;20246;-79
2023/07/02 07:49:25;;;;;;;4.17;3.87;;;20.00;58.90;;;;;;6233377;28;20231;-78
2023/07/02 07:52:28;;;;;;;4.00;3.73;;;20.00;59.50;;;;;;6234411;28;20726;-78
2023/07/02 07:55:31;;;;;;;4.60;4.20;;;19.90;59.90;;;;;;6233154;28;20313;-79
2023/07/02 07:58:36;;;;;;;4.50;4.10;;;19.80;59.60;;;;;;6226811;28;20235;-78
2023/07/02 08:01:38;;;;;;;4.03;3.63;;;19.50;59.80;;;;;;6233840;28;20880;-77
2023/07/02 08:04:42;;;;;;;4.33;4.03;;;19.20;60.40;;;;;;6223227;28;20259;-79
2023/07/02 08:07:45;;;;;;;4.20;4.00;;;19.00;60.80;;;;;;6231768;28;20314;-79
2023/07/02 08:10:49;;;;;;;4.33;3.93;;;18.80;61.60;;;;;;6230332;28;20405;-79
2023/07/02 08:13:56;;;;;;;4.67;4.27;;;18.80;61.90;;;;;;6227500;28;20246;-80
2023/07/02 08:16:59;;;;;;;5.17;4.70;;;18.70;62.40;;;;;;6220147;28;20665;-78
2023/07/02 08:20:03;;;;;;;5.00;4.20;;;18.50;62.50;;;;;;6240112;28;20264;-78
2023/07/02 08:23:07;;;;;;;4.47;4.27;;;18.50;62.90;;;;;;6235119;28;20257;-77
2023/07/02 08:26:10;;;;;;;4.50;4.20;;;18.40;63.00;;;;;;6258095;28;20259;-79
2023/07/02 08:29:15;;;;;;;5.20;4.20;;;18.50;63.20;;;;;;6249054;28;20704;-80
2023/07/02 08:32:19;;;;;;;5.00;4.57;;;18.50;63.20;;;;;;6248956;28;20238;-80
2023/07/02 08:35:22;;;;;;;4.93;4.63;;;18.60;63.20;;;;;;6254373;28;20429;-79
2023/07/02 08:38:26;;;;;;;4.93;4.60;;;18.50;62.90;;;;;;6251349;28;20321;-79
2023/07/02 08:41:31;;;;;;;5.13;4.80;;;18.40;62.90;;;;;;6258993;28;20245;-78
2023/07/02 08:44:36;;;;;;;4.87;4.57;;;18.40;62.30;;;;;;6261621;28;20246;-79
2023/07/02 08:47:39;;;;;;;9.83;5.23;;;18.50;61.40;;;;;;6260769;28;20249;-79
2023/07/02 08:50:43;;;;;;;5.10;4.70;;;18.30;61.00;;;;;;6245288;28;20714;-80
2023/07/02 08:53:46;;;;;;;5.30;4.87;;;18.40;60.80;;;;;;6254130;28;20239;-78
2023/07/02 08:56:53;;;;;;;5.43;5.03;;;18.30;60.10;;;;;;6237404;28;20238;-78
2023/07/02 08:59:57;;;;;;;6.47;4.90;;;18.40;60.40;;;;;;6259886;28;20371;-79
2023/07/02 09:03:11;;;;;;;7.03;5.30;;;18.50;60.00;;;;;;6264138;28;20238;-80
2023/07/02 09:06:14;;;;;;;6.90;4.57;;;18.70;60.40;;;;;;6251890;28;20308;-80
2023/07/02 09:09:17;;;;;;;5.73;5.13;;;18.90;58.30;;;;;;6245377;28;20298;-79
2023/07/02 09:12:24;;;;;;;5.33;4.90;;;18.90;57.60;;;;;;6255100;28;20318;-79
2023/07/02 09:15:36;;;;;;;5.20;4.83;;;18.90;57.50;;;;;;6248128;28;20250;-78
2023/07/02 09:18:39;;;;;;;5.10;4.60;;;18.80;58.00;;;;;;6249065;28;20733;-78
2023/07/02 09:21:44;;;;;;;6.97;5.10;;;19.00;57.60;;;;;;6254595;28;20864;-79
2023/07/02 09:24:53;;;;;;;4.83;4.53;;;19.20;56.80;;;;;;6240561;28;20253;-78
2023/07/02 09:27:58;;;;;;;5.47;5.07;;;19.00;57.20;;;;;;6253086;28;20226;-79
2023/07/02 09:31:03;;;;;;;5.90;5.20;;;19.00;56.50;;;;;;6249258;28;20231;-78
2023/07/02 09:34:06;;;;;;;6.20;5.60;;;19.00;57.00;;;;;;6265550;28;20386;-82
2023/07/02 09:37:10;;;;;;;6.40;5.80;;;19.20;57.00;;;;;;6262542;28;20233;-80
2023/07/02 09:40:13;;;;;;;6.57;5.97;;;19.50;56.60;;;;;;6257237;28;20234;-80
2023/07/02 09:43:17;;;;;;;6.13;5.63;;;19.70;55.70;;;;;;6260304;28;20291;-80
2023/07/02 09:46:22;;;;;;;6.07;5.57;;;19.90;56.00;;;;;;6253863;28;20296;-81
2023/07/02 09:49:26;;;;;;;8.40;5.93;;;20.00;55.40;;;;;;6261837;28;20233;-78
2023/07/02 09:52:30;;;;;;;10.70;6.77;;;19.70;55.50;;;;;;6255978;28;20833;-78
2023/07/02 09:55:34;;;;;;;7.50;6.07;;;19.70;56.20;;;;;;6257600;28;20238;-79
2023/07/02 09:58:37;;;;;;;6.83;6.27;;;19.70;56.30;;;;;;6258547;28;20234;-78
2023/07/02 10:01:41;;;;;;;11.30;7.10;;;19.60;55.30;;;;;;6266902;28;20705;-78
2023/07/02 10:04:46;;;;;;;12.47;7.17;;;19.80;54.10;;;;;;6271495;28;20247;-78
2023/07/02 10:07:50;;;;;;;9.37;6.20;;;19.90;54.40;;;;;;6240645;28;20707;-79
2023/07/02 10:10:53;;;;;;;9.37;6.07;;;20.00;54.70;;;;;;6218799;28;20294;-78
2023/07/02 10:14:00;;;;;;;9.37;6.77;;;20.10;55.60;;;;;;6235645;28;20788;-79
2023/07/02 10:17:05;;;;;;;11.00;6.97;;;20.40;55.40;;;;;;6240729;28;20241;-81
2023/07/02 10:20:11;;;;;;;13.33;7.43;;;20.50;54.70;;;;;;6231850;28;20799;-80
2023/07/02 10:23:14;;;;;;;8.43;6.70;;;20.30;55.50;;;;;;6226084;28;20239;-79
2023/07/02 10:26:18;;;;;;;8.80;7.30;;;20.30;55.60;;;;;;6226795;28;20762;-78
2023/07/02 10:29:22;;;;;;;9.17;7.00;;;20.30;55.80;;;;;;6229462;28;20486;-78
2023/07/02 10:32:40;;;;;;;7.77;6.97;;;20.60;55.90;;;;;;6236819;28;20238;-79
2023/07/02 10:35:49;;;;;;;8.80;6.90;;;20.60;56.40;;;;;;6237360;28;20231;-79
2023/07/02 10:38:52;;;;;;;11.30;6.80;;;20.50;55.50;;;;;;6227775;28;20323;-79
2023/07/02 10:42:05;;;;;;;7.20;6.50;;;20.60;55.60;;;;;;6229046;28;20239;-78
2023/07/02 10:45:09;;;;;;;8.30;7.07;;;21.00;55.60;;;;;;6216997;28;20239;-80
2023/07/02 10:48:14;;;;;;;8.83;7.17;;;20.90;55.40;;;;;;6228159;28;20382;-78
2023/07/02 10:51:17;;;;;;;11.87;7.30;;;20.60;54.50;;;;;;6234428;28;20251;-77
2023/07/02 10:54:20;;;;;;;9.07;6.33;;;20.60;54.80;;;;;;6233968;28;20808;-79
2023/07/02 10:57:23;;;;;;;8.20;6.97;;;20.70;54.20;;;;;;6232804;28;20278;-79
2023/07/02 11:00:26;;;;;;;7.57;6.87;;;20.80;54.00;;;;;;6246631;28;20607;-80
2023/07/02 11:03:31;;;;;;;10.37;7.90;;;20.90;53.90;;;;;;6248382;28;20234;-78
2023/07/02 11:06:34;;;;;;;10.57;6.83;;;21.00;54.30;;;;;;6263495;28;20269;-78
2023/07/02 11:09:37;;;;;;;8.17;7.03;;;21.40;53.70;;;;;;6263620;28;20234;-79
2023/07/02 11:12:40;;;;;;;8.93;6.67;;;21.80;53.50;;;;;;6270414;28;20862;-78
2023/07/02 11:15:45;;;;;;;11.73;7.23;;;21.70;53.00;;;;;;6259634;28;20648;-78
2023/07/02 11:18:50;;;;;;;10.23;6.77;;;21.50;52.90;;;;;;6256663;28;20781;-79
2023/07/02 11:21:56;;;;;;;12.80;7.40;;;21.30;54.50;;;;;;6254435;28;20849;-78
2023/07/02 11:25:13;;;;;;;9.30;7.50;;;21.30;53.60;;;;;;6257873;28;20704;-79
2023/07/02 11:28:16;;;;;;;16.43;7.83;;;21.10;53.70;;;;;;6253959;28;20324;-81
2023/07/02 11:31:27;;;;;;;11.57;7.67;;;21.10;54.50;;;;;;6260535;28;20273;-78
2023/07/02 11:34:34;;;;;;;11.70;7.53;;;21.30;53.30;;;;;;6233138;28;20273;-79
2023/07/02 11:37:37;;;;;;;13.87;8.60;;;21.10;53.00;;;;;;6234454;28;20341;-79
2023/07/02 11:40:40;;;;;;;9.97;7.60;;;21.00;52.80;;;;;;6232795;28;20318;-79
2023/07/02 11:43:43;;;;;;;12.37;7.00;;;20.90;51.70;;;;;;6241638;28;20262;-79
2023/07/02 11:46:47;;;;;;;11.57;7.90;;;20.90;51.60;;;;;;6219471;28;20241;-78
2023/07/02 11:49:52;;;;;;;9.70;7.07;;;21.00;51.50;;;;;;6229258;28;20231;-79
2023/07/02 11:52:55;;;;;;;8.33;6.93;;;21.00;50.60;;;;;;6220251;28;20325;-78
2023/07/02 11:55:58;;;;;;;12.43;8.03;;;21.00;49.60;;;;;;6220125;28;20246;-77
2023/07/02 11:59:01;;;;;;;10.17;7.03;;;21.20;49.50;;;;;;6232428;28;20242;-78
2023/07/02 12:02:07;;;;;;;10.97;7.73;;;21.10;48.50;;;;;;6225313;28;20322;-78
2023/07/02 12:05:11;;;;;;;10.87;6.97;;;21.10;49.00;;;;;;6227777;28;20726;-80
2023/07/02 12:08:15;;;;;;;10.23;7.23;;;21.30;47.50;;;;;;6221344;28;20628;-79
2023/07/02 12:11:18;;;;;;;9.30;7.77;;;21.40;47.80;;;;;;6235227;28;20388;-77
2023/07/02 12:14:22;;;;;;;12.13;7.37;;;21.40;48.30;;;;;;6220056;28;20312;-78
2023/07/02 12:17:26;;;;;;;12.57;7.27;;;21.40;48.10;;;;;;6227467;28;20329;-79
2023/07/02 12:20:31;;;;;;;8.93;7.07;;;21.50;47.90;;;;;;6229775;28;20231;-77
2023/07/02 12:23:34;;;;;;;12.13;7.87;;;21.50;47.80;;;;;;6229917;28;20245;-79
2023/07/02 12:26:38;;;;;;;8.07;7.27;;;21.70;47.60;;;;;;6236014;28;20353;-78
2023/07/02 12:29:41;;;;;;;9.93;6.77;;;21.70;47.00;;;;;;6223734;28;20870;-79
2023/07/02 12:32:44;;;;;;;11.63;7.37;;;21.60;47.70;;;;;;6228721;28;20250;-78
2023/07/02 12:35:49;;;;;;;9.00;7.07;;;21.50;47.20;;;;;;6216551;28;20234;-78
2023/07/02 12:38:52;;;;;;;11.47;7.50;;;21.70;46.20;;;;;;6235936;28;20278;-77
2023/07/02 12:41:56;;;;;;;12.87;7.77;;;21.70;46.80;;;;;;6234752;28;20420;-78
2023/07/02 12:45:00;;;;;;;10.57;7.50;;;21.70;47.70;;;;;;6245706;28;20319;-76
2023/07/02 12:48:03;;;;;;;10.30;7.13;;;21.90;46.80;;;;;;6256631;28;20242;-79
2023/07/02 12:51:08;;;;;;;8.97;7.27;;;21.90;46.30;;;;;;6253847;28;20234;-78
2023/07/02 12:54:11;;;;;;;9.10;7.20;;;21.90;45.30;;;;;;6258618;28;20240;-78
2023/07/02 12:57:14;;;;;;;9.70;7.70;;;22.00;45.20;;;;;;6252369;28;20245;-77
2023/07/02 13:00:20;;;;;;;11.83;8.17;;;22.00;45.80;;;;;;6260528;28;20234;-76
2023/07/02 13:03:24;;;;;;;18.53;8.37;;;21.90;46.00;;;;;;6232952;28;20238;-76
2023/07/02 13:06:29;;;;;;;15.10;8.13;;;21.90;46.20;;;;;;6237242;28;20775;-75
2023/07/02 13:09:32;;;;;;;9.20;8.20;;;22.20;47.10;;;;;;6257922;28;20238;-75
2023/07/02 13:12:35;;;;;;;13.30;7.80;;;22.50;46.50;;;;;;6256518;28;20788;-75
2023/07/02 13:15:38;;;;;;;8.07;7.13;;;22.10;46.20;;;;;;6248767;28;20261;-75
2023/07/02 13:18:41;;;;;;;12.83;7.67;;;21.90;45.80;;;;;;6253282;28;20359;-75
2023/07/02 13:21:46;;;;;;;13.83;8.30;;;21.90;46.10;;;;;;6247974;28;20329;-78
2023/07/02 13:24:49;;;;;;;19.30;8.20;;;21.80;47.00;;;;;;6253203;28;20384;-78
2023/07/02 13:27:52;;;;;;;10.07;7.93;;;22.10;46.60;;;;;;6258719;28;20307;-80
2023/07/02 13:30:56;;;;;;;10.20;6.90;;;22.10;45.90;;;;;;6251975;28;20234;-79
2023/07/02 13:33:59;;;;;;;12.80;8.03;;;22.00;46.00;;;;;;6245852;28;20741;-82
2023/07/02 13:37:04;;;;;;;8.33;7.40;;;21.90;46.40;;;;;;6255622;28;20257;-79
2023/07/02 13:40:12;;;;;;;12.57;7.87;;;21.90;46.40;;;;;;6254005;28;20225;-82
2023/07/02 13:43:15;;;;;;;13.67;7.73;;;22.00;46.50;;;;;;6247505;28;20266;-80
2023/07/02 13:46:18;;;;;;;9.27;6.97;;;22.10;45.80;;;;;;6254042;28;20313;-79
2023/07/02 13:49:22;;;;;;;8.07;7.13;;;22.10;46.10;;;;;;6245243;28;20248;-78
2023/07/02 13:52:26;;;;;;;10.80;7.60;;;22.10;46.70;;;;;;6240833;28;20247;-80
2023/07/02 13:55:30;;;;;;;11.33;7.93;;;22.20;45.40;;;;;;6238745;28;20292;-78
2023/07/02 13:58:47;;;;;;;10.10;7.50;;;22.00;45.90;;;;;;6235917;28;20292;-77
2023/07/02 14:01:52;;;;;;;10.90;7.57;;;22.20;45.60;;;;;;6232424;28;20337;-77
2023/07/02 14:04:55;;;;;;;13.80;8.07;;;22.50;45.60;;;;;;6229376;28;20285;-77
2023/07/02 14:08:01;;;;;;;9.50;7.13;;;22.70;45.50;;;;;;6228774;28;20820;-79
2023/07/02 14:11:07;;;;;;;10.83;7.73;;;22.70;45.80;;;;;;6223355;28;20277;-79
2023/07/02 14:14:10;;;;;;;12.37;7.40;;;22.70;44.50;;;;;;6232418;28;20590;-80
2023/07/02 14:17:14;;;;;;;10.83;7.00;;;22.70;44.50;;;;;;6228925;28;20243;-79
2023/07/02 14:20:18;;;;;;;11.43;8.07;;;22.70;44.60;;;;;;6227907;28;20237;-78
2023/07/02 14:23:22;;;;;;;10.70;7.93;;;22.50;44.30;;;;;;6227422;28;20227;-81
2023/07/02 14:26:26;;;;;;;12.70;8.00;;;22.10;45.00;;;;;;6237258;28;20767;-79
2023/07/02 14:29:29;;;;;;;10.80;7.90;;;22.10;45.20;;;;;;6227394;28;20960;-77
2023/07/02 14:32:34;;;;;;;12.10;8.03;;;22.20;45.80;;;;;;6237172;28;20325;-78
2023/07/02 14:35:39;;;;;;;11.63;7.37;;;22.30;45.20;;;;;;6233300;28;20239;-78
2023/07/02 14:38:42;;;;;;;14.47;7.70;;;22.40;45.50;;;;;;6239189;28;20257;-79
2023/07/02 14:41:45;;;;;;;12.83;7.90;;;22.50;44.60;;;;;;6240116;28;20230;-80
2023/07/02 14:44:49;;;;;;;10.63;7.43;;;22.60;44.30;;;;;;6243540;28;20348;-80
2023/07/02 14:47:53;;;;;;;8.87;7.97;;;22.50;44.30;;;;;;6247189;28;20321;-80
2023/07/02 14:50:58;;;;;;;9.93;7.77;;;22.50;44.10;;;;;;6247192;28;20359;-82
2023/07/02 14:54:03;;;;;;;18.03;7.40;;;22.50;43.60;;;;;;6230277;28;20334;-82
2023/07/02 14:57:06;;;;;;;12.37;7.47;;;22.30;43.90;;;;;;6245405;28;20319;-80
2023/07/02 15:00:12;;;;;;;7.97;6.70;;;22.20;44.30;;;;;;6239365;28;20254;-82
2023/07/02 15:03:18;;;;;;;14.17;7.73;;;22.40;44.30;;;;;;6258853;28;20643;-80
2023/07/02 15:06:21;;;;;;;10.57;7.57;;;22.50;43.70;;;;;;6270640;28;20235;-80
2023/07/02 15:09:24;;;;;;;11.90;7.33;;;22.70;43.80;;;;;;6263884;28;20229;-80
2023/07/02 15:12:27;;;;;;;9.17;6.87;;;22.70;44.10;;;;;;6260538;28;20284;-81
2023/07/02 15:15:31;;;;;;;10.17;7.70;;;22.50;44.40;;;;;;6269983;28;20247;-78
2023/07/02 15:18:36;;;;;;;9.73;7.53;;;22.20;44.40;;;;;;6269764;28;20241;-80
2023/07/02 15:21:39;;;;;;;7.43;6.83;;;22.10;44.60;;;;;;6272379;28;20218;-80
2023/07/02 15:24:42;;;;;;;8.40;7.50;;;22.00;44.50;;;;;;6260832;28;20245;-80
2023/07/02 15:27:47;;;;;;;9.97;7.17;;;22.00;44.80;;;;;;6275615;28;20226;-77
2023/07/02 15:30:53;;;;;;;13.53;6.70;;;21.90;44.40;;;;;;6258044;28;20235;-75
2023/07/02 15:33:58;;;;;;;8.13;6.40;;;21.90;44.90;;;;;;6260811;28;20243;-75
2023/07/02 15:37:01;;;;;;;8.43;6.57;;;22.00;44.80;;;;;;6257335;28;20223;-77
2023/07/02 15:40:05;;;;;;;7.40;6.70;;;22.20;45.20;;;;;;6255811;28;20303;-78
2023/07/02 15:43:09;;;;;;;11.30;7.13;;;22.20;45.30;;;;;;6270860;28;20257;-80
2023/07/02 15:46:14;;;;;;;11.47;7.17;;;22.30;44.50;;;;;;6261773;28;20254;-78
2023/07/02 15:49:19;;;;;;;8.93;7.00;;;22.30;44.70;;;;;;6266038;28;20250;-77
2023/07/02 15:52:22;;;;;;;8.57;6.60;;;22.20;44.30;;;;;;6271407;28;20219;-75
2023/07/02 15:55:25;;;;;;;12.20;7.13;;;22.10;44.40;;;;;;6271340;28;20236;-77
2023/07/02 15:58:31;;;;;;;12.27;6.60;;;22.20;44.50;;;;;;6262373;28;20214;-78